Hauptseite
METAR-TAF:

METAR-TAF

Flughäfen :

Flughafen Luxemburg

Luxemburg, Luxemburg

Breite: 49-37N, Länge: 006-13E, Höhe: 376 m

Beobachtung

Neuester Wetterbericht von vor 26 Minuten, um 01:50 UTC
Wind 6 kt aus Nordost
Temperatur 5°C
Luftfeuchtigkeit 65%
Luftdruck 1033 hPa
Sichtweite 10 km oder mehr

METAR: ELLX 210150Z AUTO 04006KT 9999 NCD 05/M01 Q1033 NOSIG

Zeit: 03:16 (02:16 UTC)

Prognose

Neuester Wetterbericht von vor 3 Stunden und 16 Minuten, um 23:00 UTC
Gültige Prognose vom 21 um 00 UTC bis 22 um 06 UTC
Wind 6 kt aus Nordost
Sichtweite 10 km oder mehr
keine Wolken unter 1500 m und keine Kumulonimbus oder Gewitterwolken

TAF: ELLX 202300Z 2100/2206 05006KT CAVOK

Wetterbeobachtungen und Prognosen von mehr als 4000 Flughäfen (METAR und TAF Bericht).

Die verfügbaren Stationen werden durch gelbe und rote Markierungen auf der Karte dargestellt.

Führen Sie die Maus auf sie, um den Namen der Station zu sehen.

Darauf klicken, um die Beobachtung von Wetterbeobachtungen und Prognosen zu sehen.

Um die Karte zu ändern : klicken Sie auf den grünen Tasten mit einem schwarzen Kreuz Zum Vergrößern, auf den grünen Button mit einem Gedankenstrich zu verkleinern, oder auf die grünen Pfeile für benachbarte Karten.


METAR-TAF: